Map

Track Data

SID SEASON NUMBER BASIN SUBBASIN NAME ISO_TIME NATURE LAT LON WMO_WIND WMO_PRES WMO_AGENCY TRACK_TYPE DIST2LAND LANDFALL IFLAG USA_AGENCY USA_ATCF_ID USA_LAT USA_LON USA_RECORD USA_STATUS USA_WIND USA_PRES USA_SSHS USA_R34_NE USA_R34_SE USA_R34_SW USA_R34_NW USA_R50_NE USA_R50_SE USA_R50_SW USA_R50_NW USA_R64_NE USA_R64_SE USA_R64_SW USA_R64_NW USA_POCI USA_ROCI USA_RMW USA_EYE TOKYO_LAT TOKYO_LON TOKYO_GRADE TOKYO_WIND TOKYO_PRES TOKYO_R50_DIR TOKYO_R50_LONG TOKYO_R50_SHORT TOKYO_R30_DIR TOKYO_R30_LONG TOKYO_R30_SHORT TOKYO_LAND CMA_LAT CMA_LON CMA_CAT CMA_WIND CMA_PRES HKO_LAT HKO_LON HKO_CAT HKO_WIND HKO_PRES NEWDELHI_LAT NEWDELHI_LON NEWDELHI_GRADE NEWDELHI_WIND NEWDELHI_PRES NEWDELHI_CI NEWDELHI_DP NEWDELHI_POCI REUNION_LAT REUNION_LON REUNION_TYPE REUNION_WIND REUNION_PRES REUNION_TNUM REUNION_CI REUNION_RMW REUNION_R34_NE REUNION_R34_SE REUNION_R34_SW REUNION_R34_NW REUNION_R50_NE REUNION_R50_SE REUNION_R50_SW REUNION_R50_NW REUNION_R64_NE REUNION_R64_SE REUNION_R64_SW REUNION_R64_NW BOM_LAT BOM_LON BOM_TYPE BOM_WIND BOM_PRES BOM_TNUM BOM_CI BOM_RMW BOM_R34_NE BOM_R34_SE BOM_R34_SW BOM_R34_NW BOM_R50_NE BOM_R50_SE BOM_R50_SW BOM_R50_NW BOM_R64_NE BOM_R64_SE BOM_R64_SW BOM_R64_NW BOM_ROCI BOM_POCI BOM_EYE BOM_POS_METHOD BOM_PRES_METHOD NADI_LAT NADI_LON NADI_CAT NADI_WIND NADI_PRES WELLINGTON_LAT WELLINGTON_LON WELLINGTON_WIND WELLINGTON_PRES DS824_LAT DS824_LON DS824_STAGE DS824_WIND DS824_PRES TD9636_LAT TD9636_LON TD9636_STAGE TD9636_WIND TD9636_PRES TD9635_LAT TD9635_LON TD9635_WIND TD9635_PRES TD9635_ROCI NEUMANN_LAT NEUMANN_LON NEUMANN_CLASS NEUMANN_WIND NEUMANN_PRES MLC_LAT MLC_LON MLC_CLASS MLC_WIND MLC_PRES USA_GUST BOM_GUST BOM_GUST_PER REUNION_GUST REUNION_GUST_PER USA_SEAHGT USA_SEARAD_NE USA_SEARAD_SE USA_SEARAD_SW USA_SEARAD_NW STORM_SPEED STORM_DIR
1938287N19154 1938 59 WP MM NOT_NAMED 1938-10-13 21:00:00 NR 18.7000 154.100 main 2282 2242 __________O___ -1 18.7000 154.100 4 13 271
1938287N19154 1938 59 WP MM NOT_NAMED 1938-10-14 00:00:00 NR 18.7135 153.410 main 2242 2194 __________P___ -1 18.7135 153.410 4 14 273
1938287N19154 1938 59 WP MM NOT_NAMED 1938-10-14 03:00:00 NR 18.7710 152.667 main 2194 2142 __________P___ -1 18.7710 152.667 4 15 278
1938287N19154 1938 59 WP MM NOT_NAMED 1938-10-14 06:00:00 NR 18.9183 151.816 main 2136 2060 __________P___ -1 18.9183 151.816 4 18 284
1938287N19154 1938 59 WP MM NOT_NAMED 1938-10-14 09:00:00 NR 19.2000 150.800 main 2054 1960 __________O___ -1 19.2000 150.800 4 22 289
1938287N19154 1938 59 WP MM NOT_NAMED 1938-10-14 12:00:00 NR 19.6399 149.595 main 1956 1840 __________P___ -1 19.6399 149.595 4 25 293
1938287N19154 1938 59 WP MM NOT_NAMED 1938-10-14 15:00:00 NR 20.1833 148.310 main 1836 1738 __________P___ -1 20.1833 148.310 4 26 295
1938287N19154 1938 59 WP MM NOT_NAMED 1938-10-14 18:00:00 NR 20.7591 147.094 main 1724 1634 __________P___ -1 20.7591 147.094 4 24 298
1938287N19154 1938 59 WP MM NOT_NAMED 1938-10-14 21:00:00 NR 21.3000 146.100 main 1634 1581 __________O___ -1 21.3000 146.100 4 17 300
1938287N19154 1938 59 WP MM NOT_NAMED 1938-10-15 00:00:00 NR 21.6158 145.497 main 1581 1540 __________P___ -1 21.6158 145.497 4 11 304
1938287N19154 1938 59 WP MM NOT_NAMED 1938-10-15 03:00:00 NR 21.9095 145.137 main 1536 1498 __________P___ -1 21.9095 145.137 4 8 321
1938287N19154 1938 59 WP MM NOT_NAMED 1938-10-15 06:00:00 NR 22.2737 144.933 main 1488 1431 __________P___ -1 22.2737 144.933 4 9 341
1938287N19154 1938 59 WP MM NOT_NAMED 1938-10-15 09:00:00 NR 22.8000 144.800 main 1431 1337 __________O___ -1 22.8000 144.800 4 14 343
1938287N19154 1938 59 WP MM NOT_NAMED 1938-10-15 12:00:00 NR 23.6021 144.496 main 1337 1235 __________P___ -1 23.6021 144.496 4 18 344
1938287N19154 1938 59 WP MM NOT_NAMED 1938-10-15 15:00:00 NR 24.5693 144.255 main 1224 1112 __________P___ -1 24.5693 144.255 4 21 351
1938287N19154 1938 59 WP MM NOT_NAMED 1938-10-15 18:00:00 NR 25.6268 144.135 main 1112 1012 __________P___ -1 25.6268 144.135 4 21 358
1938287N19154 1938 59 WP MM NOT_NAMED 1938-10-15 21:00:00 NR 26.7000 144.200 main 1002 924 __________O___ -1 26.7000 144.200 4 19 4
1938287N19154 1938 59 WP MM NOT_NAMED 1938-10-16 00:00:00 NR 27.5055 144.277 main 924 859 __________P___ -1 27.5055 144.277 4 17 12
1938287N19154 1938 59 WP MM NOT_NAMED 1938-10-16 03:00:00 NR 28.3371 144.576 main 859 797 __________P___ -1 28.3371 144.576 4 20 24
1938287N19154 1938 59 WP MM NOT_NAMED 1938-10-16 06:00:00 NR 29.3255 145.209 main 797 752 __________P___ -1 29.3255 145.209 4 27 34
1938287N19154 1938 59 WP MM NOT_NAMED 1938-10-16 09:00:00 NR 30.6000 146.300 main 751 739 __________O___ -1 30.6000 146.300 4 38 39
1938287N19154 1938 59 WP MM NOT_NAMED 1938-10-16 12:00:00 NR 32.2455 147.954 main 760 760 __________P___ -1 32.2455 147.954 4 48 42
1938287N19154 1938 59 WP MM NOT_NAMED 1938-10-16 15:00:00 NR 34.1804 150.124 main 852 852 __________P___ -1 34.1804 150.124 4 56 44
1938287N19154 1938 59 WP MM NOT_NAMED 1938-10-16 18:00:00 NR 36.2757 152.714 main 982 937 __________P___ -1 36.2757 152.714 4 61 46
1938287N19154 1938 59 WP MM NOT_NAMED 1938-10-16 21:00:00 NR 38.4000 155.600 main 936 __________O___ -1 38.4000 155.600 4 62 47

Digital Typhoon Data and Search

About IBTrACS Database

This database is a web-friendly format of International Best Track Archive for Climate Stewardship (IBTrACS), a global best track data archive curated by NOAA dating back to 1842.

Updated: 2021-10-27